Time;durP1;ratioP1;P1;durP2;ratioP2;P2;SDS_P1;SDS_P2;PMS_P1;PMS_P2;Temp;Humidity;BMP_temperature;BMP_pressure;BME280_temperature;BME280_humidity;BME280_pressure;Samples;Min_cycle;Max_cycle;Signal;HPM_P1;HPM_P2
2021/01/04 00:02:24;;;;;;;2.95;2.75;;;;;;;;;;4829597;29;20202;-85
2021/01/04 00:05:21;;;;;;;2.25;2.08;;;;;;;;;;4830534;29;20296;-85
2021/01/04 00:08:30;;;;;;;2.35;2.22;;;;;;;;;;4818817;29;20266;-84
2021/01/04 00:11:41;;;;;;;2.75;2.55;;;;;;;;;;4818690;29;20245;-85
2021/01/04 00:14:24;;;;;;;2.60;2.40;;;;;;;;;;4830698;29;20212;-85
2021/01/04 00:17:02;;;;;;;2.88;2.67;;;;;;;;;;4829780;29;20221;-86
2021/01/04 00:19:39;;;;;;;2.78;2.45;;;;;;;;;;4831617;29;20198;-87
2021/01/04 00:22:13;;;;;;;2.75;2.50;;;;;;;;;;4830181;29;20212;-87
2021/01/04 00:24:49;;;;;;;2.70;2.30;;;;;;;;;;4823641;29;20186;-87
2021/01/04 00:27:26;;;;;;;3.22;2.92;;;;;;;;;;4831414;29;20624;-89
2021/01/04 00:29:59;;;;;;;3.05;2.85;;;;;;;;;;4832086;29;20283;-91
2021/01/04 00:32:33;;;;;;;2.38;2.17;;;;;;;;;;4831689;29;20194;-89
2021/01/04 00:35:06;;;;;;;2.67;2.47;;;;;;;;;;4831410;29;20240;-90
2021/01/04 00:38:20;;;;;;;2.60;2.40;;;;;;;;;;4831525;29;20567;-90
2021/01/04 00:41:12;;;;;;;3.72;2.75;;;;;;;;;;4758198;30;20332;-91
2021/01/04 00:43:44;;;;;;;3.03;2.75;;;;;;;;;;4758825;30;20266;-91
2021/01/04 00:46:12;;;;;;;2.88;2.60;;;;;;;;;;4758361;30;20204;-91
2021/01/04 00:48:46;;;;;;;2.72;2.53;;;;;;;;;;4758363;30;20207;-91
2021/01/04 00:51:27;;;;;;;4.72;2.70;;;;;;;;;;4758410;30;20196;-91
2021/01/04 00:53:55;;;;;;;3.40;3.10;;;;;;;;;;4758093;30;20199;-90
2021/01/04 00:56:38;;;;;;;2.92;2.65;;;;;;;;;;4757929;30;20228;-90
2021/01/04 00:59:12;;;;;;;2.88;2.67;;;;;;;;;;4758407;30;20212;-91
2021/01/04 01:02:06;;;;;;;2.90;2.70;;;;;;;;;;4757928;30;20211;-90
2021/01/04 01:04:39;;;;;;;2.63;2.42;;;;;;;;;;4757681;30;20212;-90
2021/01/04 01:07:13;;;;;;;2.53;2.33;;;;;;;;;;4757525;30;20197;-91
2021/01/04 01:09:45;;;;;;;3.72;3.42;;;;;;;;;;4757774;30;20224;-90
2021/01/04 01:12:38;;;;;;;2.90;2.67;;;;;;;;;;4757986;30;20208;-90
2021/01/04 01:15:18;;;;;;;2.85;2.65;;;;;;;;;;4757437;30;20480;-89
2021/01/04 01:18:07;;;;;;;3.72;3.35;;;;;;;;;;4793249;29;20230;-88
2021/01/04 01:20:38;;;;;;;3.72;3.40;;;;;;;;;;4831571;29;20572;-90
2021/01/04 01:23:08;;;;;;;2.65;2.45;;;;;;;;;;4831450;29;20555;-90
2021/01/04 01:25:43;;;;;;;2.92;2.70;;;;;;;;;;4830903;29;20216;-91
2021/01/04 01:28:55;;;;;;;2.70;2.50;;;;;;;;;;4830557;29;20189;-90
2021/01/04 01:31:43;;;;;;;3.20;3.00;;;;;;;;;;4830447;29;20194;-91
2021/01/04 01:34:44;;;;;;;4.32;3.38;;;;;;;;;;4830603;29;20316;-90
2021/01/04 01:38:01;;;;;;;2.72;2.40;;;;;;;;;;4830542;29;20218;-90
2021/01/04 01:41:02;;;;;;;3.88;3.03;;;;;;;;;;4830310;29;20234;-89
2021/01/04 01:43:47;;;;;;;3.20;2.90;;;;;;;;;;4757361;30;20224;-89
2021/01/04 01:46:19;;;;;;;3.00;2.53;;;;;;;;;;4757461;30;20641;-90
2021/01/04 01:48:54;;;;;;;2.88;2.67;;;;;;;;;;4757307;30;20235;-89
2021/01/04 01:51:39;;;;;;;3.00;2.80;;;;;;;;;;4757866;30;20204;-89
2021/01/04 01:54:34;;;;;;;2.67;2.45;;;;;;;;;;4756897;30;20830;-88
2021/01/04 01:57:25;;;;;;;4.45;4.07;;;;;;;;;;4756809;30;20224;-89
2021/01/04 02:00:10;;;;;;;4.13;3.13;;;;;;;;;;4756902;30;20217;-90
2021/01/04 02:02:45;;;;;;;3.28;3.08;;;;;;;;;;4757527;30;20248;-89
2021/01/04 02:05:16;;;;;;;2.97;2.78;;;;;;;;;;4757224;30;20275;-90
2021/01/04 02:07:47;;;;;;;3.63;3.33;;;;;;;;;;4757278;30;20580;-91
2021/01/04 02:10:18;;;;;;;3.30;3.00;;;;;;;;;;4756602;30;20603;-90
2021/01/04 02:12:51;;;;;;;3.45;3.10;;;;;;;;;;4756672;30;20475;-90
2021/01/04 02:15:23;;;;;;;3.28;2.97;;;;;;;;;;4756863;30;20564;-90
2021/01/04 02:18:13;;;;;;;3.30;3.00;;;;;;;;;;4755789;30;20281;-89
2021/01/04 02:21:16;;;;;;;4.25;3.05;;;;;;;;;;4790229;29;20506;-90
2021/01/04 02:23:47;;;;;;;3.13;2.83;;;;;;;;;;4830208;29;20225;-90
2021/01/04 02:26:20;;;;;;;3.13;2.83;;;;;;;;;;4829862;29;20194;-90
2021/01/04 02:28:58;;;;;;;3.28;3.00;;;;;;;;;;4829984;29;20194;-90
2021/01/04 02:31:25;;;;;;;3.65;2.70;;;;;;;;;;4830322;29;20202;-90
2021/01/04 02:33:52;;;;;;;4.43;3.30;;;;;;;;;;4829868;29;20190;-91
2021/01/04 02:36:19;;;;;;;5.00;3.38;;;;;;;;;;4829771;29;20285;-91
2021/01/04 02:38:59;;;;;;;3.80;3.42;;;;;;;;;;4829557;29;20198;-90
2021/01/04 02:41:43;;;;;;;3.20;2.90;;;;;;;;;;4829998;29;20284;-90
2021/01/04 02:44:09;;;;;;;3.08;2.83;;;;;;;;;;4829693;29;20484;-91
2021/01/04 02:46:39;;;;;;;3.33;3.03;;;;;;;;;;4829888;29;20532;-91
2021/01/04 02:49:14;;;;;;;2.70;2.50;;;;;;;;;;4829476;29;20186;-89
2021/01/04 02:51:44;;;;;;;3.90;3.38;;;;;;;;;;4830158;29;20208;-90
2021/01/04 02:54:22;;;;;;;2.55;2.35;;;;;;;;;;4829361;29;20194;-89
2021/01/04 02:56:58;;;;;;;3.67;3.30;;;;;;;;;;4829553;29;20224;-92
2021/01/04 02:59:49;;;;;;;3.33;3.13;;;;;;;;;;4830030;29;20213;-89
2021/01/04 03:02:23;;;;;;;3.97;3.35;;;;;;;;;;4829196;29;20492;-89
2021/01/04 03:04:51;;;;;;;3.08;2.80;;;;;;;;;;4829856;29;20190;-91
2021/01/04 03:07:23;;;;;;;4.00;3.50;;;;;;;;;;4829537;29;20194;-90
2021/01/04 03:09:53;;;;;;;3.50;3.20;;;;;;;;;;4829604;29;20308;-90
2021/01/04 03:12:23;;;;;;;3.22;2.92;;;;;;;;;;4829218;29;20258;-90
2021/01/04 03:15:25;;;;;;;4.63;3.05;;;;;;;;;;4829304;29;20190;-91
2021/01/04 03:18:08;;;;;;;4.07;3.10;;;;;;;;;;4829366;29;20214;-91
2021/01/04 03:20:35;;;;;;;3.10;2.70;;;;;;;;;;4829368;29;20194;-90
2021/01/04 03:23:02;;;;;;;3.60;3.30;;;;;;;;;;4828796;29;20213;-91
2021/01/04 03:25:34;;;;;;;4.75;3.70;;;;;;;;;;4829229;29;20189;-90
2021/01/04 03:28:04;;;;;;;3.80;3.47;;;;;;;;;;4829183;29;20202;-90
2021/01/04 03:30:31;;;;;;;3.55;3.25;;;;;;;;;;4832785;29;20522;-91
2021/01/04 03:32:59;;;;;;;3.03;2.75;;;;;;;;;;4833056;29;20210;-90
2021/01/04 03:35:26;;;;;;;3.47;3.17;;;;;;;;;;4833282;29;20218;-90
2021/01/04 03:37:53;;;;;;;3.58;3.28;;;;;;;;;;4832470;29;20214;-90
2021/01/04 03:40:20;;;;;;;3.00;2.80;;;;;;;;;;4832255;29;20244;-90
2021/01/04 03:42:47;;;;;;;4.55;3.58;;;;;;;;;;4832756;29;20194;-90
2021/01/04 03:45:17;;;;;;;3.63;3.30;;;;;;;;;;4832376;29;20467;-89
2021/01/04 03:47:44;;;;;;;3.60;3.30;;;;;;;;;;4832790;29;20283;-90
2021/01/04 03:50:14;;;;;;;3.40;3.00;;;;;;;;;;4832453;29;20527;-90
2021/01/04 03:52:42;;;;;;;3.97;3.10;;;;;;;;;;4832990;29;20241;-90
2021/01/04 03:55:10;;;;;;;3.20;2.95;;;;;;;;;;4832876;29;20206;-90
2021/01/04 03:57:37;;;;;;;3.60;3.30;;;;;;;;;;4832643;29;20234;-89
2021/01/04 04:00:07;;;;;;;3.33;3.03;;;;;;;;;;4832914;29;20193;-89
2021/01/04 04:02:35;;;;;;;4.35;3.45;;;;;;;;;;4831800;29;20191;-90
2021/01/04 04:05:03;;;;;;;3.70;3.40;;;;;;;;;;4831859;29;20210;-90
2021/01/04 04:07:30;;;;;;;3.65;3.20;;;;;;;;;;4832307;29;20256;-90
2021/01/04 04:09:57;;;;;;;3.60;3.30;;;;;;;;;;4831964;29;20232;-88
2021/01/04 04:12:23;;;;;;;4.22;3.83;;;;;;;;;;4831624;29;20198;-89
2021/01/04 04:14:51;;;;;;;5.65;3.45;;;;;;;;;;4831959;29;20216;-90
2021/01/04 04:17:19;;;;;;;4.35;3.88;;;;;;;;;;4831645;29;20230;-90
2021/01/04 04:19:47;;;;;;;3.45;3.15;;;;;;;;;;4831842;29;20205;-90
2021/01/04 04:22:14;;;;;;;3.00;2.70;;;;;;;;;;4832292;29;20202;-89
2021/01/04 04:24:42;;;;;;;3.78;3.30;;;;;;;;;;4831950;29;20182;-90
2021/01/04 04:27:10;;;;;;;3.50;3.20;;;;;;;;;;4832298;29;20194;-89
2021/01/04 04:29:39;;;;;;;3.53;3.22;;;;;;;;;;4831568;29;20201;-89
2021/01/04 04:32:06;;;;;;;3.13;2.78;;;;;;;;;;4831600;29;20206;-89
2021/01/04 04:34:34;;;;;;;3.33;2.97;;;;;;;;;;4831597;29;20599;-90
2021/01/04 04:37:03;;;;;;;3.72;3.25;;;;;;;;;;4831447;29;20214;-89
2021/01/04 04:39:30;;;;;;;3.95;3.55;;;;;;;;;;4830799;29;20506;-91
2021/01/04 04:41:57;;;;;;;4.03;2.80;;;;;;;;;;4830688;29;20565;-88
2021/01/04 04:44:29;;;;;;;3.50;3.20;;;;;;;;;;4831668;29;20195;-89
2021/01/04 04:47:26;;;;;;;4.03;3.72;;;;;;;;;;4831351;29;20190;-89
2021/01/04 04:50:20;;;;;;;3.40;3.20;;;;;;;;;;4831385;29;20537;-90
2021/01/04 04:53:19;;;;;;;3.58;3.28;;;;;;;;;;4831368;29;20194;-89
2021/01/04 04:56:21;;;;;;;3.40;2.65;;;;;;;;;;4830979;29;20202;-90
2021/01/04 04:58:56;;;;;;;2.88;2.65;;;;;;;;;;4831137;29;20449;-90
2021/01/04 05:01:38;;;;;;;3.60;3.30;;;;;;;;;;4831937;29;20428;-90
2021/01/04 05:04:28;;;;;;;3.35;3.05;;;;;;;;;;4831502;29;20470;-91
2021/01/04 05:06:59;;;;;;;3.53;3.22;;;;;;;;;;4828094;29;20206;-90
2021/01/04 05:10:05;;;;;;;4.35;3.75;;;;;;;;;;4830728;29;20222;-91
2021/01/04 05:12:42;;;;;;;3.25;3.03;;;;;;;;;;4758034;30;20212;-89
2021/01/04 05:15:35;;;;;;;2.97;2.70;;;;;;;;;;4757965;30;20201;-89
2021/01/04 05:18:41;;;;;;;4.10;3.80;;;;;;;;;;4757859;30;20216;-90
2021/01/04 05:21:40;;;;;;;4.10;3.53;;;;;;;;;;4757509;30;20192;-90
2021/01/04 05:24:49;;;;;;;3.90;3.55;;;;;;;;;;4758090;30;20467;-90
2021/01/04 05:27:53;;;;;;;3.47;3.05;;;;;;;;;;4705525;30;20207;-89
2021/01/04 05:30:54;;;;;;;4.03;3.33;;;;;;;;;;4705483;30;20262;-89
2021/01/04 05:34:02;;;;;;;3.15;2.85;;;;;;;;;;4704839;30;20206;-90
2021/01/04 05:36:51;;;;;;;3.80;3.50;;;;;;;;;;4670394;30;20217;-90
2021/01/04 05:39:32;;;;;;;3.45;3.17;;;;;;;;;;4670820;30;20247;-89
2021/01/04 05:42:28;;;;;;;3.63;3.33;;;;;;;;;;4670557;30;20210;-89
2021/01/04 05:45:06;;;;;;;3.85;3.30;;;;;;;;;;4670522;30;20208;-87
2021/01/04 05:47:58;;;;;;;4.55;4.18;;;;;;;;;;4676178;30;20279;-87
2021/01/04 05:50:30;;;;;;;3.80;3.35;;;;;;;;;;4704427;30;20210;-89
2021/01/04 05:52:57;;;;;;;3.78;3.47;;;;;;;;;;4704087;30;20641;-87
2021/01/04 05:55:25;;;;;;;3.58;3.28;;;;;;;;;;4704199;30;20532;-87
2021/01/04 05:57:54;;;;;;;4.65;3.40;;;;;;;;;;4704202;30;20237;-86
2021/01/04 06:00:30;;;;;;;4.30;3.60;;;;;;;;;;4704151;30;20207;-87
2021/01/04 06:03:06;;;;;;;3.65;3.40;;;;;;;;;;4703993;30;20248;-87
2021/01/04 06:05:33;;;;;;;3.30;3.00;;;;;;;;;;4753336;30;20595;-86
2021/01/04 06:08:01;;;;;;;3.08;2.80;;;;;;;;;;4756497;30;20193;-89
2021/01/04 06:10:33;;;;;;;3.70;3.40;;;;;;;;;;4792983;29;20217;-87
2021/01/04 06:13:02;;;;;;;3.35;3.05;;;;;;;;;;4830037;29;20258;-89
2021/01/04 06:15:32;;;;;;;3.78;3.47;;;;;;;;;;4830084;29;20205;-86
2021/01/04 06:18:06;;;;;;;3.97;3.58;;;;;;;;;;4829788;29;20214;-87
2021/01/04 06:21:10;;;;;;;3.65;3.17;;;;;;;;;;4830637;29;20194;-89
2021/01/04 06:23:37;;;;;;;3.47;3.17;;;;;;;;;;4829946;29;20258;-88
2021/01/04 06:26:24;;;;;;;3.70;3.40;;;;;;;;;;4829850;29;20186;-88
2021/01/04 06:28:54;;;;;;;3.53;3.22;;;;;;;;;;4829852;29;20190;-87
2021/01/04 06:31:36;;;;;;;3.95;3.55;;;;;;;;;;4798848;29;20621;-90
2021/01/04 06:34:10;;;;;;;3.50;3.20;;;;;;;;;;4829957;29;20323;-88
2021/01/04 06:36:38;;;;;;;4.03;3.63;;;;;;;;;;4830137;29;20201;-88
2021/01/04 06:39:12;;;;;;;3.92;3.53;;;;;;;;;;4829216;29;20238;-89
2021/01/04 06:41:40;;;;;;;3.85;3.55;;;;;;;;;;4829744;29;20195;-89
2021/01/04 06:44:20;;;;;;;4.25;3.58;;;;;;;;;;4830460;29;20209;-89
2021/01/04 06:47:06;;;;;;;4.90;3.75;;;;;;;;;;4829568;29;20567;-89
2021/01/04 06:49:43;;;;;;;3.63;3.33;;;;;;;;;;4829681;29;20190;-89
2021/01/04 06:52:51;;;;;;;3.65;3.35;;;;;;;;;;4829569;29;20465;-89
2021/01/04 06:56:00;;;;;;;3.78;3.30;;;;;;;;;;4829509;29;20201;-89
2021/01/04 06:59:02;;;;;;;3.47;3.17;;;;;;;;;;4802759;29;20519;-88
2021/01/04 07:01:51;;;;;;;2.85;2.65;;;;;;;;;;4829717;29;20572;-88
2021/01/04 07:04:37;;;;;;;3.53;3.22;;;;;;;;;;4828516;29;20254;-89
2021/01/04 07:07:22;;;;;;;3.10;2.85;;;;;;;;;;4829564;29;20190;-89
2021/01/04 07:10:27;;;;;;;3.42;3.03;;;;;;;;;;4828890;29;20221;-88
2021/01/04 07:13:43;;;;;;;3.50;3.20;;;;;;;;;;4829733;29;20233;-89
2021/01/04 07:16:36;;;;;;;3.75;3.45;;;;;;;;;;4829054;29;20205;-88
2021/01/04 07:19:10;;;;;;;3.60;3.30;;;;;;;;;;4829138;29;20221;-88
2021/01/04 07:21:43;;;;;;;3.58;3.28;;;;;;;;;;4829239;29;20188;-88
2021/01/04 07:24:32;;;;;;;4.57;3.97;;;;;;;;;;4829715;29;20202;-88
2021/01/04 07:27:14;;;;;;;3.83;3.53;;;;;;;;;;4829407;29;20185;-89
2021/01/04 07:30:06;;;;;;;3.70;3.40;;;;;;;;;;4828889;29;20197;-89
2021/01/04 07:32:45;;;;;;;3.85;3.42;;;;;;;;;;4829636;29;20194;-89
2021/01/04 07:35:17;;;;;;;3.92;3.63;;;;;;;;;;4797645;29;20204;-89
2021/01/04 07:38:10;;;;;;;3.63;3.08;;;;;;;;;;4829026;29;20270;-88
2021/01/04 07:40:49;;;;;;;3.78;3.38;;;;;;;;;;4825564;29;20624;-89
2021/01/04 07:44:02;;;;;;;3.72;3.42;;;;;;;;;;4829020;29;20198;-88
2021/01/04 07:47:08;;;;;;;3.97;3.65;;;;;;;;;;4829039;29;20186;-89
2021/01/04 07:50:19;;;;;;;4.05;3.65;;;;;;;;;;4827502;29;20602;-89
2021/01/04 07:53:25;;;;;;;3.83;3.47;;;;;;;;;;4828928;29;20206;-88
2021/01/04 07:56:26;;;;;;;4.45;3.20;;;;;;;;;;4828640;29;20194;-89
2021/01/04 07:59:40;;;;;;;3.47;3.17;;;;;;;;;;4828792;29;20485;-88
2021/01/04 08:03:03;;;;;;;3.67;3.25;;;;;;;;;;4828655;29;20194;-89
2021/01/04 08:06:10;;;;;;;4.22;3.83;;;;;;;;;;4800214;29;20258;-89
2021/01/04 08:08:45;;;;;;;4.93;4.18;;;;;;;;;;4828323;29;20200;-89
2021/01/04 08:12:08;;;;;;;3.78;3.33;;;;;;;;;;4828733;29;20201;-89
2021/01/04 08:15:04;;;;;;;4.00;3.60;;;;;;;;;;4755462;30;20274;-90
2021/01/04 08:17:42;;;;;;;3.67;3.30;;;;;;;;;;4758504;30;20197;-88
2021/01/04 08:20:10;;;;;;;3.55;3.25;;;;;;;;;;4758427;30;20201;-89
2021/01/04 08:23:26;;;;;;;4.53;3.83;;;;;;;;;;4758701;30;20193;-90
2021/01/04 08:26:08;;;;;;;3.40;3.10;;;;;;;;;;4758554;30;20204;-89
2021/01/04 08:28:41;;;;;;;4.60;3.70;;;;;;;;;;4759156;30;20213;-88
2021/01/04 08:31:22;;;;;;;4.53;4.13;;;;;;;;;;4758549;30;20273;-88
2021/01/04 08:33:52;;;;;;;5.35;4.15;;;;;;;;;;4758369;30;20196;-89
2021/01/04 08:36:25;;;;;;;4.00;3.33;;;;;;;;;;4758717;30;20219;-88
2021/01/04 08:39:10;;;;;;;5.45;3.95;;;;;;;;;;4758439;30;20221;-89
2021/01/04 08:41:38;;;;;;;3.85;3.38;;;;;;;;;;4758609;30;20212;-89
2021/01/04 08:44:17;;;;;;;3.80;3.47;;;;;;;;;;4758246;30;20517;-88
2021/01/04 08:46:45;;;;;;;4.18;3.80;;;;;;;;;;4758499;30;20480;-89
2021/01/04 08:49:26;;;;;;;3.70;3.40;;;;;;;;;;4757944;30;20203;-88
2021/01/04 08:51:54;;;;;;;4.40;4.05;;;;;;;;;;4817019;29;20206;-88
2021/01/04 08:54:29;;;;;;;4.68;3.67;;;;;;;;;;4831109;29;20197;-88
2021/01/04 08:57:10;;;;;;;4.07;3.70;;;;;;;;;;4831128;29;20281;-88
2021/01/04 08:59:37;;;;;;;3.80;3.50;;;;;;;;;;4831073;29;20205;-88
2021/01/04 09:02:31;;;;;;;3.88;3.53;;;;;;;;;;4830864;29;20474;-89
2021/01/04 09:05:01;;;;;;;4.18;3.80;;;;;;;;;;4830701;29;20191;-89
2021/01/04 09:07:28;;;;;;;4.60;4.07;;;;;;;;;;4831229;29;20209;-90
2021/01/04 09:10:00;;;;;;;3.90;3.55;;;;;;;;;;4830807;29;20230;-88
2021/01/04 09:12:35;;;;;;;3.00;2.80;;;;;;;;;;4831053;29;20198;-88
2021/01/04 09:15:08;;;;;;;3.67;3.38;;;;;;;;;;4831054;29;20201;-89
2021/01/04 09:17:45;;;;;;;3.60;3.33;;;;;;;;;;4830854;29;20190;-88
2021/01/04 09:20:44;;;;;;;4.35;3.20;;;;;;;;;;4831111;29;20207;-88
2021/01/04 09:23:32;;;;;;;4.45;3.70;;;;;;;;;;4830791;29;20274;-89
2021/01/04 09:26:17;;;;;;;3.08;2.78;;;;;;;;;;4830328;29;20190;-89
2021/01/04 09:28:47;;;;;;;4.82;2.88;;;;;;;;;;4830403;29;20281;-88
2021/01/04 09:31:17;;;;;;;3.67;3.10;;;;;;;;;;4830632;29;20194;-89
2021/01/04 09:33:46;;;;;;;3.47;2.92;;;;;;;;;;4830603;29;20194;-88
2021/01/04 09:36:13;;;;;;;5.43;3.88;;;;;;;;;;4830275;29;20197;-88
2021/01/04 09:38:40;;;;;;;4.35;3.00;;;;;;;;;;4830007;29;20499;-87
2021/01/04 09:41:10;;;;;;;3.80;3.40;;;;;;;;;;4830016;29;20244;-88
2021/01/04 09:43:39;;;;;;;3.15;2.85;;;;;;;;;;4830493;29;20196;-87
2021/01/04 09:46:20;;;;;;;3.40;3.10;;;;;;;;;;4830487;29;20186;-88
2021/01/04 09:48:56;;;;;;;3.20;2.95;;;;;;;;;;4830184;29;20557;-89
2021/01/04 09:51:33;;;;;;;3.60;3.30;;;;;;;;;;4830332;29;20588;-90
2021/01/04 09:54:03;;;;;;;3.72;3.42;;;;;;;;;;4830855;29;20220;-89
2021/01/04 09:56:35;;;;;;;3.67;3.25;;;;;;;;;;4830436;29;20212;-90
2021/01/04 09:59:05;;;;;;;3.90;3.50;;;;;;;;;;4830253;29;20218;-90
2021/01/04 10:01:40;;;;;;;4.45;4.05;;;;;;;;;;4830353;29;20190;-90
2021/01/04 10:04:08;;;;;;;3.05;2.85;;;;;;;;;;4830233;29;20194;-90
2021/01/04 10:06:36;;;;;;;3.47;3.17;;;;;;;;;;4830356;29;20200;-89
2021/01/04 10:09:06;;;;;;;3.58;3.28;;;;;;;;;;4829930;29;20240;-91
2021/01/04 10:11:34;;;;;;;3.42;3.13;;;;;;;;;;4830189;29;20545;-89
2021/01/04 10:14:06;;;;;;;3.50;3.20;;;;;;;;;;4829797;29;20571;-89
2021/01/04 10:16:34;;;;;;;3.78;3.45;;;;;;;;;;4829901;29;20186;-90
2021/01/04 10:19:08;;;;;;;3.00;2.80;;;;;;;;;;4830093;29;20209;-90
2021/01/04 10:21:45;;;;;;;3.35;3.05;;;;;;;;;;4830067;29;20193;-91
2021/01/04 10:24:18;;;;;;;3.92;3.63;;;;;;;;;;4830346;29;20186;-88
2021/01/04 10:26:48;;;;;;;3.30;3.00;;;;;;;;;;4829892;29;20194;-89
2021/01/04 10:29:18;;;;;;;3.50;3.20;;;;;;;;;;4830609;29;20213;-89
2021/01/04 10:31:46;;;;;;;4.63;3.55;;;;;;;;;;4829929;29;20192;-89
2021/01/04 10:34:16;;;;;;;3.38;3.08;;;;;;;;;;4829891;29;20262;-88
2021/01/04 10:36:53;;;;;;;3.53;3.20;;;;;;;;;;4829808;29;20469;-88
2021/01/04 10:39:23;;;;;;;3.80;3.50;;;;;;;;;;4828705;29;20241;-88
2021/01/04 10:41:55;;;;;;;3.58;3.28;;;;;;;;;;4829498;29;20195;-87
2021/01/04 10:44:25;;;;;;;3.60;3.30;;;;;;;;;;4829321;29;20277;-89
2021/01/04 10:46:56;;;;;;;3.33;3.05;;;;;;;;;;4829664;29;20593;-89
2021/01/04 10:49:30;;;;;;;3.08;2.88;;;;;;;;;;4829571;29;20255;-88
2021/01/04 10:51:58;;;;;;;3.92;3.53;;;;;;;;;;4829452;29;20460;-88
2021/01/04 10:54:37;;;;;;;3.83;3.42;;;;;;;;;;4829403;29;20579;-89
2021/01/04 10:57:19;;;;;;;3.92;3.50;;;;;;;;;;4829402;29;20194;-88
2021/01/04 10:59:53;;;;;;;3.60;3.30;;;;;;;;;;4829366;29;20217;-88
2021/01/04 11:02:20;;;;;;;3.50;3.20;;;;;;;;;;4829098;29;20204;-88
2021/01/04 11:04:53;;;;;;;4.30;3.90;;;;;;;;;;4829392;29;20201;-89
2021/01/04 11:07:28;;;;;;;3.65;3.20;;;;;;;;;;4829413;29;20250;-88
2021/01/04 11:09:56;;;;;;;4.43;4.03;;;;;;;;;;4829131;29;20225;-89
2021/01/04 11:12:26;;;;;;;4.57;3.22;;;;;;;;;;4829564;29;20210;-89
2021/01/04 11:14:57;;;;;;;4.78;4.20;;;;;;;;;;4828942;29;20193;-87
2021/01/04 11:17:28;;;;;;;4.63;3.80;;;;;;;;;;4829068;29;20431;-89
2021/01/04 11:20:03;;;;;;;3.92;3.47;;;;;;;;;;4830101;29;20253;-90
2021/01/04 11:22:30;;;;;;;3.97;3.30;;;;;;;;;;4829524;29;20361;-89
2021/01/04 11:24:57;;;;;;;6.80;3.72;;;;;;;;;;4828898;29;20194;-89
2021/01/04 11:27:25;;;;;;;4.07;3.67;;;;;;;;;;4828752;29;20206;-89
2021/01/04 11:29:53;;;;;;;3.85;3.55;;;;;;;;;;4829313;29;20280;-89
2021/01/04 11:32:23;;;;;;;3.63;3.22;;;;;;;;;;4829190;29;20268;-89
2021/01/04 11:34:51;;;;;;;3.58;3.28;;;;;;;;;;4828672;29;20210;-89
2021/01/04 11:37:21;;;;;;;4.28;3.88;;;;;;;;;;4828861;29;20369;-89
2021/01/04 11:39:48;;;;;;;4.40;4.00;;;;;;;;;;4828645;29;20502;-89
2021/01/04 11:42:15;;;;;;;3.95;3.65;;;;;;;;;;4829127;29;20194;-89
2021/01/04 11:44:43;;;;;;;4.82;4.38;;;;;;;;;;4828999;29;20201;-89
2021/01/04 11:47:10;;;;;;;4.07;3.65;;;;;;;;;;4828815;29;20201;-89
2021/01/04 11:49:37;;;;;;;4.00;3.70;;;;;;;;;;4829628;29;20224;-89
2021/01/04 11:52:05;;;;;;;3.80;3.47;;;;;;;;;;4832768;29;20224;-90
2021/01/04 11:54:32;;;;;;;4.63;4.07;;;;;;;;;;4831956;29;20256;-89
2021/01/04 11:56:59;;;;;;;4.95;4.13;;;;;;;;;;4832408;29;20198;-89
2021/01/04 11:59:26;;;;;;;3.80;3.47;;;;;;;;;;4832174;29;20225;-89
2021/01/04 12:01:55;;;;;;;4.72;3.72;;;;;;;;;;4832049;29;20267;-89
2021/01/04 12:04:22;;;;;;;5.10;4.10;;;;;;;;;;4832465;29;20190;-89
2021/01/04 12:06:50;;;;;;;4.50;4.07;;;;;;;;;;4831644;29;20186;-87
2021/01/04 12:09:17;;;;;;;3.47;3.17;;;;;;;;;;4832460;29;20302;-89
2021/01/04 12:11:46;;;;;;;5.03;4.45;;;;;;;;;;4831856;29;20198;-88
2021/01/04 12:14:14;;;;;;;4.65;4.25;;;;;;;;;;4831503;29;20206;-87
2021/01/04 12:16:41;;;;;;;5.30;4.30;;;;;;;;;;4831545;29;20190;-87
2021/01/04 12:19:10;;;;;;;4.90;4.40;;;;;;;;;;4831444;29;20205;-91
2021/01/04 12:21:37;;;;;;;4.40;4.00;;;;;;;;;;4831033;29;20472;-87
2021/01/04 12:24:04;;;;;;;4.50;4.00;;;;;;;;;;4831819;29;20201;-86
2021/01/04 12:26:31;;;;;;;4.43;4.03;;;;;;;;;;4831169;29;20276;-86
2021/01/04 12:28:58;;;;;;;5.28;4.30;;;;;;;;;;4830917;29;20508;-86
2021/01/04 12:31:25;;;;;;;5.28;4.45;;;;;;;;;;4831510;29;20194;-86
2021/01/04 12:33:52;;;;;;;4.88;3.85;;;;;;;;;;4831327;29;20206;-85
2021/01/04 12:36:22;;;;;;;4.72;4.05;;;;;;;;;;4831045;29;20278;-86
2021/01/04 12:38:49;;;;;;;3.88;3.50;;;;;;;;;;4829881;29;20504;-86
2021/01/04 12:41:17;;;;;;;4.47;3.90;;;;;;;;;;4831237;29;20233;-87
2021/01/04 12:43:45;;;;;;;3.97;3.67;;;;;;;;;;4831412;29;20204;-89
2021/01/04 12:46:12;;;;;;;5.07;4.38;;;;;;;;;;4830994;29;20572;-87
2021/01/04 12:48:39;;;;;;;4.32;3.92;;;;;;;;;;4831407;29;20213;-91
2021/01/04 12:51:07;;;;;;;5.03;4.53;;;;;;;;;;4830686;29;20198;-87
2021/01/04 12:53:35;;;;;;;3.78;3.47;;;;;;;;;;4831476;29;20221;-87
2021/01/04 12:56:04;;;;;;;4.40;3.72;;;;;;;;;;4831145;29;20205;-87
2021/01/04 12:58:31;;;;;;;5.95;3.97;;;;;;;;;;4830602;29;20285;-86
2021/01/04 13:00:58;;;;;;;4.97;4.45;;;;;;;;;;4830208;29;20256;-89
2021/01/04 13:03:25;;;;;;;4.45;3.97;;;;;;;;;;4830209;29;20569;-89
2021/01/04 13:05:52;;;;;;;3.78;3.47;;;;;;;;;;4831231;29;20466;-91
2021/01/04 13:08:19;;;;;;;4.72;4.05;;;;;;;;;;4830816;29;20201;-88
2021/01/04 13:10:47;;;;;;;3.60;3.30;;;;;;;;;;4830409;29;20225;-87
2021/01/04 13:13:14;;;;;;;4.57;4.13;;;;;;;;;;4830682;29;20583;-88
2021/01/04 13:15:41;;;;;;;4.38;3.97;;;;;;;;;;4830905;29;20515;-89
2021/01/04 13:18:08;;;;;;;4.30;3.90;;;;;;;;;;4830710;29;20201;-89
2021/01/04 13:20:34;;;;;;;4.25;3.83;;;;;;;;;;4830819;29;20228;-89
2021/01/04 13:23:01;;;;;;;3.88;3.47;;;;;;;;;;4832168;29;20189;-88
2021/01/04 13:25:28;;;;;;;4.30;3.88;;;;;;;;;;4830719;29;20194;-89
2021/01/04 13:27:57;;;;;;;3.67;3.38;;;;;;;;;;4830258;29;20194;-88
2021/01/04 13:30:24;;;;;;;4.28;3.88;;;;;;;;;;4831725;29;20547;-88
2021/01/04 13:32:51;;;;;;;4.40;3.92;;;;;;;;;;4826308;29;20446;-89
2021/01/04 13:35:19;;;;;;;3.92;3.60;;;;;;;;;;4830485;29;20205;-88
2021/01/04 13:37:46;;;;;;;3.90;3.47;;;;;;;;;;4830209;29;20586;-89
2021/01/04 13:40:15;;;;;;;4.57;4.00;;;;;;;;;;4830372;29;20252;-89
2021/01/04 13:42:42;;;;;;;4.53;4.03;;;;;;;;;;4830267;29;20569;-87
2021/01/04 13:45:11;;;;;;;5.50;3.92;;;;;;;;;;4831684;29;20190;-87
2021/01/04 13:47:38;;;;;;;3.67;3.17;;;;;;;;;;4829968;29;20206;-86
2021/01/04 13:50:10;;;;;;;5.60;4.18;;;;;;;;;;4829161;29;20209;-85
2021/01/04 13:52:38;;;;;;;4.03;3.63;;;;;;;;;;4829089;29;20286;-85
2021/01/04 13:55:06;;;;;;;4.10;3.78;;;;;;;;;;4829234;29;21381;-87
2021/01/04 13:57:33;;;;;;;3.70;3.25;;;;;;;;;;4829623;29;20198;-86
2021/01/04 14:00:00;;;;;;;3.50;3.20;;;;;;;;;;4829042;29;20225;-86
2021/01/04 14:02:28;;;;;;;3.50;3.20;;;;;;;;;;4828889;29;20206;-86
2021/01/04 14:04:55;;;;;;;3.10;2.88;;;;;;;;;;4829743;29;20202;-86
2021/01/04 14:07:22;;;;;;;3.53;3.22;;;;;;;;;;4829043;29;20222;-85
2021/01/04 14:09:50;;;;;;;4.00;3.13;;;;;;;;;;4829178;29;20233;-85
2021/01/04 14:12:18;;;;;;;4.30;3.90;;;;;;;;;;4829825;29;20209;-85
2021/01/04 14:14:46;;;;;;;4.28;3.88;;;;;;;;;;4829030;29;20239;-86
2021/01/04 14:17:13;;;;;;;4.20;3.47;;;;;;;;;;4829653;29;20197;-87
2021/01/04 14:19:41;;;;;;;4.93;3.95;;;;;;;;;;4829897;29;20210;-87
2021/01/04 14:22:09;;;;;;;4.43;4.03;;;;;;;;;;4829748;29;20190;-90
2021/01/04 14:24:36;;;;;;;4.18;3.80;;;;;;;;;;4829492;29;20474;-89
2021/01/04 14:27:04;;;;;;;4.82;4.13;;;;;;;;;;4801116;29;20587;-88
2021/01/04 14:29:32;;;;;;;4.15;3.58;;;;;;;;;;4847727;29;20185;-87
2021/01/04 14:32:00;;;;;;;3.40;3.10;;;;;;;;;;4847830;29;20190;-87
2021/01/04 14:34:27;;;;;;;3.67;3.22;;;;;;;;;;4811351;29;20228;-88
2021/01/04 14:36:55;;;;;;;3.17;2.88;;;;;;;;;;4823523;29;20202;-89
2021/01/04 14:39:22;;;;;;;3.67;3.35;;;;;;;;;;4829255;29;20241;-88
2021/01/04 14:41:59;;;;;;;4.03;3.58;;;;;;;;;;4829596;29;20228;-87
2021/01/04 14:44:26;;;;;;;4.43;3.50;;;;;;;;;;4829532;29;20204;-87
2021/01/04 14:46:58;;;;;;;3.15;2.85;;;;;;;;;;4829568;29;20198;-86
2021/01/04 14:49:25;;;;;;;3.58;3.28;;;;;;;;;;4829367;29;20201;-86
2021/01/04 14:51:52;;;;;;;4.07;3.72;;;;;;;;;;4829521;29;20644;-87
2021/01/04 14:54:21;;;;;;;3.38;2.92;;;;;;;;;;4829230;29;20206;-86
2021/01/04 14:56:48;;;;;;;3.90;3.53;;;;;;;;;;4829931;29;20496;-87
2021/01/04 14:59:15;;;;;;;3.50;3.20;;;;;;;;;;4829132;29;20197;-87
2021/01/04 15:01:42;;;;;;;4.32;3.92;;;;;;;;;;4829303;29;20499;-87
2021/01/04 15:04:10;;;;;;;4.43;4.03;;;;;;;;;;4829307;29;20201;-86
2021/01/04 15:06:37;;;;;;;3.75;3.45;;;;;;;;;;4830236;29;20210;-87
2021/01/04 15:09:05;;;;;;;4.40;3.30;;;;;;;;;;4828736;29;20194;-87
2021/01/04 15:11:33;;;;;;;5.68;3.75;;;;;;;;;;4829284;29;20198;-86
2021/01/04 15:14:00;;;;;;;3.60;3.30;;;;;;;;;;4828626;29;20206;-86
2021/01/04 15:16:27;;;;;;;3.22;2.92;;;;;;;;;;4828848;29;20478;-86
2021/01/04 15:18:54;;;;;;;3.97;3.58;;;;;;;;;;4828875;29;20197;-85
2021/01/04 15:21:21;;;;;;;3.55;3.25;;;;;;;;;;4829142;29;20217;-86
2021/01/04 15:23:48;;;;;;;3.35;3.05;;;;;;;;;;4828909;29;20210;-86
2021/01/04 15:26:20;;;;;;;3.70;3.28;;;;;;;;;;4832414;29;20190;-86
2021/01/04 15:28:48;;;;;;;2.85;2.55;;;;;;;;;;4832399;29;20526;-87
2021/01/04 15:31:15;;;;;;;3.40;3.10;;;;;;;;;;4832674;29;20190;-86
2021/01/04 15:33:42;;;;;;;3.13;2.92;;;;;;;;;;4832551;29;20202;-86
2021/01/04 15:36:10;;;;;;;4.80;3.92;;;;;;;;;;4832439;29;20457;-86